createdAt,value
2016-03-22T00:00:21.798Z,1010.45
2016-03-22T00:01:21.801Z,1010.4
2016-03-22T00:02:21.803Z,1010.44
2016-03-22T00:03:21.823Z,1010.43
2016-03-22T00:04:21.825Z,1010.42
2016-03-22T00:05:21.827Z,1010.36
2016-03-22T00:06:21.831Z,1010.37
2016-03-22T00:07:21.833Z,1010.37
2016-03-22T00:08:21.850Z,1010.33
2016-03-22T00:09:21.853Z,1010.35
2016-03-22T00:10:21.856Z,1010.32
2016-03-22T00:11:21.859Z,1010.33
2016-03-22T00:12:21.878Z,1010.31
2016-03-22T00:13:21.880Z,1010.3
2016-03-22T00:14:21.882Z,1010.28
2016-03-22T00:15:21.886Z,1010.28
2016-03-22T00:16:21.888Z,1010.31
2016-03-22T00:17:21.906Z,1010.3
2016-03-22T00:18:21.910Z,1010.33
2016-03-22T00:19:21.912Z,1010.28
2016-03-22T00:20:21.930Z,1010.3
2016-03-22T00:21:21.933Z,1010.3
2016-03-22T00:22:21.935Z,1010.31
2016-03-22T00:23:21.938Z,1010.27
2016-03-22T00:24:21.957Z,1010.29
2016-03-22T00:25:21.959Z,1010.28
2016-03-22T00:26:21.962Z,1010.23
2016-03-22T00:27:21.965Z,1010.26
2016-03-22T00:28:21.967Z,1010.24
2016-03-22T00:29:21.970Z,1010.23
2016-03-22T00:30:21.988Z,1010.2
2016-03-22T00:31:21.991Z,1010.18
2016-03-22T00:32:21.993Z,1010.19
2016-03-22T00:33:22.011Z,1010.25
2016-03-22T00:34:22.014Z,1010.24
2016-03-22T00:35:22.016Z,1010.28
2016-03-22T00:36:22.019Z,1010.24
2016-03-22T00:37:22.037Z,1010.25
2016-03-22T00:38:22.041Z,1010.28
2016-03-22T00:39:22.043Z,1010.29
2016-03-22T00:40:22.046Z,1010.26
2016-03-22T00:41:22.048Z,1010.28
2016-03-22T00:42:22.066Z,1010.26
2016-03-22T00:43:22.069Z,1010.26
2016-03-22T00:44:22.071Z,1010.26
2016-03-22T00:45:22.074Z,1010.26
2016-03-22T00:46:22.093Z,1010.25
2016-03-22T00:47:22.096Z,1010.26
2016-03-22T00:48:22.098Z,1010.22
2016-03-22T00:49:22.101Z,1010.21
2016-03-22T00:50:22.104Z,1010.21
2016-03-22T00:51:22.122Z,1010.2
2016-03-22T00:52:22.125Z,1010.2
2016-03-22T00:53:22.127Z,1010.27
2016-03-22T00:54:22.131Z,1010.21
2016-03-22T00:55:22.133Z,1010.23
2016-03-22T00:56:22.136Z,1010.2
2016-03-22T00:57:22.153Z,1010.24
2016-03-22T00:58:22.156Z,1010.22
2016-03-22T00:59:22.158Z,1010.19
2016-03-22T01:00:22.162Z,1010.15
2016-03-22T01:01:22.180Z,1010.16
2016-03-22T01:02:22.182Z,1010.16
2016-03-22T01:03:22.202Z,1010.2
2016-03-22T01:04:22.188Z,1010.18
2016-03-22T01:05:22.207Z,1010.17
2016-03-22T01:06:22.210Z,1010.16
2016-03-22T01:07:22.212Z,1010.11
2016-03-22T01:08:22.215Z,1010.15
2016-03-22T01:09:22.249Z,1010.15
2016-03-22T01:10:22.235Z,1010.14
2016-03-22T01:11:22.238Z,1010.13
2016-03-22T01:12:22.241Z,1010.11
2016-03-22T01:13:22.243Z,1010.11
2016-03-22T01:14:22.263Z,1010.12
2016-03-22T01:15:22.265Z,1010.1
2016-03-22T01:16:22.268Z,1010.09
2016-03-22T01:17:22.270Z,1010.09
2016-03-22T01:18:22.288Z,1010.14
2016-03-22T01:19:22.290Z,1010.12
2016-03-22T01:20:22.293Z,1010.1
2016-03-22T01:21:22.296Z,1010.09
2016-03-22T01:22:22.298Z,1010.13
2016-03-22T01:23:22.318Z,1010.08
2016-03-22T01:24:22.367Z,1010.08
2016-03-22T01:25:22.322Z,1010.11
2016-03-22T01:26:22.326Z,1010.11
2016-03-22T01:27:22.344Z,1010.12
2016-03-22T01:28:22.347Z,1010.13
2016-03-22T01:29:22.349Z,1010.11
2016-03-22T01:30:22.352Z,1010.06
2016-03-22T01:31:22.355Z,1010.07
2016-03-22T01:32:22.373Z,1010.11
2016-03-22T01:33:22.375Z,1010.08
2016-03-22T01:34:22.378Z,1010.07
2016-03-22T01:35:22.381Z,1010.03
2016-03-22T01:36:22.399Z,1010.04
2016-03-22T01:37:22.402Z,1010.07
2016-03-22T01:38:22.404Z,1010.03
2016-03-22T01:39:22.408Z,1010.04
2016-03-22T01:40:22.410Z,1010.06
2016-03-22T01:41:22.413Z,1010.1
2016-03-22T01:42:22.431Z,1010.04
2016-03-22T01:43:22.449Z,1010.05
2016-03-22T01:44:22.452Z,1010
2016-03-22T01:45:22.454Z,1009.97
2016-03-22T01:46:22.457Z,1009.98
2016-03-22T01:47:22.459Z,1009.95
2016-03-22T01:48:22.463Z,1009.94
2016-03-22T01:49:22.465Z,1009.95
2016-03-22T01:50:22.484Z,1009.92
2016-03-22T01:51:22.487Z,1009.94
2016-03-22T01:52:22.489Z,1009.92
2016-03-22T01:53:22.492Z,1009.92
2016-03-22T01:54:22.495Z,1009.88
2016-03-22T01:55:22.512Z,1009.9
2016-03-22T01:56:22.515Z,1009.86
2016-03-22T01:57:22.514Z,1009.86
2016-03-22T01:58:22.503Z,1009.84
2016-03-22T01:59:22.509Z,1009.87
2016-03-22T02:00:22.498Z,1009.86
2016-03-22T02:01:22.487Z,1009.85
2016-03-22T02:02:22.479Z,1009.85
2016-03-22T02:03:22.476Z,1009.85
2016-03-22T02:04:22.490Z,1009.83
2016-03-22T02:05:22.488Z,1009.85
2016-03-22T02:06:22.485Z,1009.82
2016-03-22T02:07:22.484Z,1009.85
2016-03-22T02:08:22.501Z,1009.8
2016-03-22T02:09:22.501Z,1009.82
2016-03-22T02:10:22.502Z,1009.78
2016-03-22T02:11:22.504Z,1009.81
2016-03-22T02:12:22.505Z,1009.82
2016-03-22T02:13:22.522Z,1009.82
2016-03-22T02:14:22.524Z,1009.81
2016-03-22T02:15:22.543Z,1009.84
2016-03-22T02:16:22.528Z,1009.82
2016-03-22T02:17:22.531Z,1009.84
2016-03-22T02:18:22.550Z,1009.82
2016-03-22T02:19:22.552Z,1009.83
2016-03-22T02:20:22.570Z,1009.77
2016-03-22T02:21:22.558Z,1009.75
2016-03-22T02:22:22.575Z,1009.74
2016-03-22T02:23:22.578Z,1009.71
2016-03-22T02:24:22.597Z,1009.69
2016-03-22T02:25:22.583Z,1009.66
2016-03-22T02:26:22.602Z,1009.68
2016-03-22T02:27:22.605Z,1009.6
2016-03-22T02:28:22.607Z,1009.6
2016-03-22T02:29:22.610Z,1009.54
2016-03-22T02:30:22.618Z,1009.5
2016-03-22T02:31:22.620Z,1009.46
2016-03-22T02:32:22.623Z,1009.45
2016-03-22T02:33:22.641Z,1009.43
2016-03-22T02:34:22.643Z,1009.43
2016-03-22T02:35:22.663Z,1009.46
2016-03-22T02:36:22.649Z,1009.46
2016-03-22T02:37:22.651Z,1009.42
2016-03-22T02:38:22.670Z,1009.36
2016-03-22T02:39:22.689Z,1009.32
2016-03-22T02:40:22.675Z,1009.29
2016-03-22T02:41:22.679Z,1009.28
2016-03-22T02:42:22.697Z,1009.3
2016-03-22T02:43:22.699Z,1009.29
2016-03-22T02:44:22.703Z,1009.24
2016-03-22T02:45:22.705Z,1009.27
2016-03-22T02:46:22.707Z,1009.33
2016-03-22T02:47:22.725Z,1009.41
2016-03-22T02:48:22.728Z,1009.44
2016-03-22T02:49:22.731Z,1009.44
2016-03-22T02:50:22.734Z,1009.48
2016-03-22T02:51:22.752Z,1009.49
2016-03-22T02:52:22.755Z,1009.42
2016-03-22T02:53:22.758Z,1009.43
2016-03-22T02:54:22.854Z,1009.51
2016-03-22T02:55:22.763Z,1009.43
2016-03-22T02:56:22.781Z,1009.39
2016-03-22T02:57:22.784Z,1009.38
2016-03-22T02:58:22.802Z,1009.32
2016-03-22T02:59:22.789Z,1009.33
2016-03-22T03:00:22.807Z,1009.33
2016-03-22T03:01:22.810Z,1009.4
2016-03-22T03:02:22.813Z,1009.38
2016-03-22T03:03:22.815Z,1009.35
2016-03-22T03:04:22.834Z,1009.33
2016-03-22T03:05:22.837Z,1009.33
2016-03-22T03:06:22.840Z,1009.26
2016-03-22T03:07:22.842Z,1009.26
2016-03-22T03:08:22.845Z,1009.21
2016-03-22T03:09:22.848Z,1009.19
2016-03-22T03:10:22.865Z,1009.16
2016-03-22T03:11:22.868Z,1009.19
2016-03-22T03:12:22.871Z,1009.2
2016-03-22T03:13:22.889Z,1009.24
2016-03-22T03:14:22.892Z,1009.22
2016-03-22T03:15:22.895Z,1009.23
2016-03-22T03:16:22.897Z,1009.27
2016-03-22T03:17:22.901Z,1009.23
2016-03-22T03:18:22.903Z,1009.19
2016-03-22T03:19:22.921Z,1009.23
2016-03-22T03:20:22.925Z,1009.25
2016-03-22T03:21:22.927Z,1009.25
2016-03-22T03:22:22.929Z,1009.29
2016-03-22T03:23:22.947Z,1009.26
2016-03-22T03:24:22.950Z,1009.26
2016-03-22T03:25:22.952Z,1009.25
2016-03-22T03:26:22.956Z,1009.24
2016-03-22T03:27:22.958Z,1009.24
2016-03-22T03:28:22.960Z,1009.2
2016-03-22T03:29:22.980Z,1009.23
2016-03-22T03:30:22.982Z,1009.19
2016-03-22T03:31:22.985Z,1009.15
2016-03-22T03:32:22.987Z,1009.15
2016-03-22T03:33:23.005Z,1009.14
2016-03-22T03:34:23.008Z,1009.13
2016-03-22T03:35:23.011Z,1009.04
2016-03-22T03:36:23.013Z,1009.1
2016-03-22T03:37:23.016Z,1009.09
2016-03-22T03:38:23.035Z,1009.16
2016-03-22T03:39:23.038Z,1009.17
2016-03-22T03:40:23.040Z,1009.14
2016-03-22T03:41:23.042Z,1009.1
2016-03-22T03:42:23.062Z,1009.14
2016-03-22T03:43:23.064Z,1009.17
2016-03-22T03:44:23.067Z,1009.23
2016-03-22T03:45:23.069Z,1009.26
2016-03-22T03:46:23.087Z,1009.28
2016-03-22T03:47:23.090Z,1009.26
2016-03-22T03:48:23.093Z,1009.25
2016-03-22T03:49:23.095Z,1009.21
2016-03-22T03:50:23.097Z,1009.18
2016-03-22T03:51:23.101Z,1009.14
2016-03-22T03:52:23.119Z,1009.18
2016-03-22T03:53:23.122Z,1009.2
2016-03-22T03:54:23.125Z,1009.21
2016-03-22T03:55:23.127Z,1009.19
2016-03-22T03:56:23.146Z,1009.16
2016-03-22T03:57:23.149Z,1009.14
2016-03-22T03:58:23.151Z,1009.16
2016-03-22T03:59:23.154Z,1009.13
2016-03-22T04:00:23.157Z,1009.15
2016-03-22T04:01:23.174Z,1009.15
2016-03-22T04:02:23.177Z,1009.15
2016-03-22T04:03:23.180Z,1009.14
2016-03-22T04:04:23.182Z,1009.17
2016-03-22T04:05:23.185Z,1009.12
2016-03-22T04:06:23.188Z,1009.1
2016-03-22T04:07:23.207Z,1009.11
2016-03-22T04:08:23.209Z,1009.05
2016-03-22T04:09:23.212Z,1009.08
2016-03-22T04:10:23.229Z,1009.09
2016-03-22T04:11:23.232Z,1009.09
2016-03-22T04:12:23.235Z,1009.04
2016-03-22T04:13:23.238Z,1009.03
2016-03-22T04:14:23.256Z,1009.04
2016-03-22T04:15:23.243Z,1009
2016-03-22T04:16:23.262Z,1009.01
2016-03-22T04:17:23.264Z,1009
2016-03-22T04:18:23.267Z,1009.03
2016-03-22T04:19:23.270Z,1009
2016-03-22T04:20:23.288Z,1008.96
2016-03-22T04:21:23.292Z,1008.98
2016-03-22T04:22:23.294Z,1008.98
2016-03-22T04:23:23.296Z,1009.01
2016-03-22T04:24:23.300Z,1008.99
2016-03-22T04:25:23.317Z,1009.07
2016-03-22T04:26:23.320Z,1009.08
2016-03-22T04:27:23.322Z,1009.03
2016-03-22T04:28:23.325Z,1008.99
2016-03-22T04:29:23.328Z,1009.04
2016-03-22T04:30:23.347Z,1009.05
2016-03-22T04:31:23.349Z,1009.04
2016-03-22T04:32:23.351Z,1009.04
2016-03-22T04:33:23.371Z,1008.99
2016-03-22T04:34:23.357Z,1008.99
2016-03-22T04:35:23.376Z,1008.98
2016-03-22T04:36:23.378Z,1008.95
2016-03-22T04:37:23.381Z,1008.9
2016-03-22T04:38:23.384Z,1008.85
2016-03-22T04:39:23.402Z,1008.89
2016-03-22T04:40:23.405Z,1008.9
2016-03-22T04:41:23.407Z,1008.89
2016-03-22T04:42:23.409Z,1008.91
2016-03-22T04:43:23.413Z,1008.9
2016-03-22T04:44:23.431Z,1008.92
2016-03-22T04:45:23.433Z,1008.91
2016-03-22T04:46:23.734Z,1008.92
2016-03-22T04:47:23.439Z,1008.92
2016-03-22T04:48:23.442Z,1008.93
2016-03-22T04:49:23.460Z,1008.9
2016-03-22T04:50:23.462Z,1008.91
2016-03-22T04:51:23.465Z,1008.89
2016-03-22T04:52:23.468Z,1008.9
2016-03-22T04:53:23.470Z,1008.87
2016-03-22T04:54:23.473Z,1008.83
2016-03-22T04:55:23.491Z,1008.8
2016-03-22T04:56:23.495Z,1008.81
2016-03-22T04:57:23.497Z,1008.83
2016-03-22T04:58:23.516Z,1008.88
2016-03-22T04:59:23.518Z,1008.92
2016-03-22T05:00:23.521Z,1008.92
2016-03-22T05:01:23.524Z,1008.9
2016-03-22T05:02:23.526Z,1008.88
2016-03-22T05:03:23.529Z,1008.87
2016-03-22T05:04:23.546Z,1008.92
2016-03-22T05:05:23.550Z,1008.94
2016-03-22T05:06:23.552Z,1008.95
2016-03-22T05:07:23.571Z,1008.88
2016-03-22T05:08:23.574Z,1008.93
2016-03-22T05:09:23.576Z,1008.97
2016-03-22T05:10:23.579Z,1009.02
2016-03-22T05:11:23.582Z,1008.96
2016-03-22T05:12:23.600Z,1008.96
2016-03-22T05:13:23.603Z,1008.94
2016-03-22T05:14:23.606Z,1008.96
2016-03-22T05:15:23.608Z,1008.95
2016-03-22T05:16:23.612Z,1008.97
2016-03-22T05:17:23.629Z,1008.97
2016-03-22T05:18:23.632Z,1008.99
2016-03-22T05:19:23.634Z,1009
2016-03-22T05:20:23.637Z,1009.01
2016-03-22T05:21:23.640Z,1009.05
2016-03-22T05:22:23.658Z,1009.07
2016-03-22T05:23:23.661Z,1009.08
2016-03-22T05:24:23.663Z,1009.06
2016-03-22T05:25:23.666Z,1009.1
2016-03-22T05:26:23.669Z,1009.12
2016-03-22T05:27:23.687Z,1009.18
2016-03-22T05:28:23.690Z,1009.18
2016-03-22T05:29:23.692Z,1009.14
2016-03-22T05:30:23.695Z,1009.13
2016-03-22T05:31:23.697Z,1009.16
2016-03-22T05:32:23.716Z,1009.15
2016-03-22T05:33:23.719Z,1009.12
2016-03-22T05:34:23.721Z,1009.09
2016-03-22T05:35:23.725Z,1009.08
2016-03-22T05:36:23.758Z,1009.08
2016-03-22T05:37:23.728Z,1009.07
2016-03-22T05:38:23.743Z,1009.02
2016-03-22T05:39:23.743Z,1009.04
2016-03-22T05:40:23.882Z,1008.99
2016-03-22T05:41:23.744Z,1008.95
2016-03-22T05:42:23.747Z,1008.94
2016-03-22T05:43:23.750Z,1008.9
2016-03-22T05:44:23.768Z,1008.91
2016-03-22T05:45:23.771Z,1008.9
2016-03-22T05:46:23.774Z,1008.86
2016-03-22T05:47:23.776Z,1008.9
2016-03-22T05:48:23.794Z,1008.88
2016-03-22T05:49:23.782Z,1008.87
2016-03-22T05:50:23.799Z,1008.89
2016-03-22T05:51:23.803Z,1008.85
2016-03-22T05:52:23.805Z,1008.9
2016-03-22T05:53:23.808Z,1008.89
2016-03-22T05:54:23.826Z,1008.85
2016-03-22T05:55:23.829Z,1008.86
2016-03-22T05:56:23.832Z,1008.91
2016-03-22T05:57:23.834Z,1008.89
2016-03-22T05:58:23.838Z,1008.95
2016-03-22T05:59:23.855Z,1008.84
2016-03-22T06:00:23.858Z,1008.84
2016-03-22T06:01:23.860Z,1008.84
2016-03-22T06:02:23.863Z,1008.81
2016-03-22T06:03:23.866Z,1008.84
2016-03-22T06:04:23.884Z,1008.79
2016-03-22T06:05:23.887Z,1008.84
2016-03-22T06:06:23.890Z,1008.92
2016-03-22T06:07:23.892Z,1008.87
2016-03-22T06:08:23.911Z,1008.81
2016-03-22T06:09:23.914Z,1008.79
2016-03-22T06:10:23.932Z,1008.75
2016-03-22T06:11:23.919Z,1008.71
2016-03-22T06:12:23.921Z,1008.7
2016-03-22T06:13:23.925Z,1008.72
2016-03-22T06:14:23.942Z,1008.72
2016-03-22T06:15:23.945Z,1008.71
2016-03-22T06:16:23.947Z,1008.77
2016-03-22T06:17:23.950Z,1008.78
2016-03-22T06:18:23.968Z,1008.73
2016-03-22T06:19:23.971Z,1008.72
2016-03-22T06:20:23.975Z,1008.76
2016-03-22T06:21:23.977Z,1008.7
2016-03-22T06:22:23.980Z,1008.75
2016-03-22T06:23:23.998Z,1008.77
2016-03-22T06:24:24.001Z,1008.78
2016-03-22T06:25:24.004Z,1008.81
2016-03-22T06:26:24.006Z,1008.76
2016-03-22T06:27:24.009Z,1008.76
2016-03-22T06:28:24.026Z,1008.77
2016-03-22T06:29:24.030Z,1008.79
2016-03-22T06:30:24.032Z,1008.78
2016-03-22T06:31:24.035Z,1008.76
2016-03-22T06:32:24.038Z,1008.76
2016-03-22T06:33:24.056Z,1008.79
2016-03-22T06:34:24.059Z,1008.74
2016-03-22T06:35:24.061Z,1008.72
2016-03-22T06:36:24.065Z,1008.71
2016-03-22T06:37:24.082Z,1008.72
2016-03-22T06:38:24.085Z,1008.69
2016-03-22T06:39:24.087Z,1008.71
2016-03-22T06:40:24.090Z,1008.69
2016-03-22T06:41:24.109Z,1008.67
2016-03-22T06:42:24.111Z,1008.72
2016-03-22T06:43:24.115Z,1008.66
2016-03-22T06:44:24.117Z,1008.67
2016-03-22T06:45:24.120Z,1008.69
2016-03-22T06:46:24.138Z,1008.69
2016-03-22T06:47:24.141Z,1008.69
2016-03-22T06:48:24.143Z,1008.73
2016-03-22T06:49:24.146Z,1008.76
2016-03-22T06:50:24.148Z,1008.8
2016-03-22T06:51:24.166Z,1008.87
2016-03-22T06:52:24.169Z,1008.84
2016-03-22T06:53:24.172Z,1008.8
2016-03-22T06:54:24.175Z,1008.8
2016-03-22T06:55:24.193Z,1008.78
2016-03-22T06:56:24.196Z,1008.73
2016-03-22T06:57:24.198Z,1008.72
2016-03-22T06:58:24.202Z,1008.7
2016-03-22T06:59:24.204Z,1008.73
2016-03-22T07:00:24.207Z,1008.75
2016-03-22T07:01:24.225Z,1008.72
2016-03-22T07:02:24.228Z,1008.74
2016-03-22T07:03:24.231Z,1008.66
2016-03-22T07:04:24.248Z,1008.64
2016-03-22T07:05:24.252Z,1008.62
2016-03-22T07:06:24.254Z,1008.66
2016-03-22T07:07:24.257Z,1008.64
2016-03-22T07:08:24.264Z,1008.67
2016-03-22T07:09:24.267Z,1008.7
2016-03-22T07:10:24.286Z,1008.69
2016-03-22T07:11:24.272Z,1008.72
2016-03-22T07:12:24.292Z,1008.71
2016-03-22T07:13:24.309Z,1008.71
2016-03-22T07:14:24.297Z,1008.73
2016-03-22T07:15:24.299Z,1008.69
2016-03-22T07:16:24.317Z,1008.64
2016-03-22T07:17:24.320Z,1008.67
2016-03-22T07:18:24.322Z,1008.69
2016-03-22T07:19:24.325Z,1008.68
2016-03-22T07:20:24.327Z,1008.63
2016-03-22T07:21:24.346Z,1008.63
2016-03-22T07:22:24.349Z,1008.66
2016-03-22T07:23:24.351Z,1008.7
2016-03-22T07:24:24.354Z,1008.73
2016-03-22T07:25:24.373Z,1008.7
2016-03-22T07:26:24.375Z,1008.72
2016-03-22T07:27:24.378Z,1008.65
2016-03-22T07:28:24.381Z,1008.68
2016-03-22T07:29:24.384Z,1008.64
2016-03-22T07:30:24.401Z,1008.63
2016-03-22T07:31:24.404Z,1008.68
2016-03-22T07:32:24.407Z,1008.64
2016-03-22T07:33:24.409Z,1008.66
2016-03-22T07:34:24.412Z,1008.68
2016-03-22T07:35:24.431Z,1008.69
2016-03-22T07:36:24.434Z,1008.67
2016-03-22T07:37:24.436Z,1008.65
2016-03-22T07:38:24.454Z,1008.66
2016-03-22T07:39:24.442Z,1008.58
2016-03-22T07:40:24.459Z,1008.54
2016-03-22T07:41:24.462Z,1008.52
2016-03-22T07:42:24.464Z,1008.53
2016-03-22T07:43:24.468Z,1008.53
2016-03-22T07:44:24.486Z,1008.52
2016-03-22T07:45:24.489Z,1008.5
2016-03-22T07:46:24.508Z,1008.53
2016-03-22T07:47:24.494Z,1008.53
2016-03-22T07:48:24.497Z,1008.57
2016-03-22T07:49:24.515Z,1008.51
2016-03-22T07:50:24.519Z,1008.49
2016-03-22T07:51:24.521Z,1008.52
2016-03-22T07:52:24.523Z,1008.54
2016-03-22T07:53:24.541Z,1008.51
2016-03-22T07:54:24.544Z,1008.52
2016-03-22T07:55:24.546Z,1008.47
2016-03-22T07:56:24.549Z,1008.46
2016-03-22T07:57:24.568Z,1008.47
2016-03-22T07:58:24.571Z,1008.51
2016-03-22T07:59:24.573Z,1008.59
2016-03-22T08:00:24.576Z,1008.52
2016-03-22T08:01:24.595Z,1008.5
2016-03-22T08:02:24.597Z,1008.48
2016-03-22T08:03:24.600Z,1008.49
2016-03-22T08:04:24.618Z,1008.5
2016-03-22T08:05:24.620Z,1008.51
2016-03-22T08:06:24.624Z,1008.51
2016-03-22T08:07:24.626Z,1008.53
2016-03-22T08:08:24.645Z,1008.55
2016-03-22T08:09:24.647Z,1008.55
2016-03-22T08:10:24.665Z,1008.5
2016-03-22T08:11:24.653Z,1008.54
2016-03-22T08:12:24.670Z,1008.51
2016-03-22T08:13:24.673Z,1008.56
2016-03-22T08:14:24.676Z,1008.66
2016-03-22T08:15:24.678Z,1008.63
2016-03-22T08:16:24.697Z,1008.66
2016-03-22T08:17:24.700Z,1008.66
2016-03-22T08:18:24.703Z,1008.64
2016-03-22T08:19:24.705Z,1008.67
2016-03-22T08:20:24.724Z,1008.69
2016-03-22T08:21:24.726Z,1008.68
2016-03-22T08:22:24.730Z,1008.65
2016-03-22T08:23:24.747Z,1008.66
2016-03-22T08:24:24.750Z,1008.66
2016-03-22T08:25:24.815Z,1008.6
2016-03-22T08:26:24.771Z,1008.63
2016-03-22T08:27:24.774Z,1008.67
2016-03-22T08:28:24.777Z,1008.68
2016-03-22T08:29:24.780Z,1008.64
2016-03-22T08:30:24.782Z,1008.62
2016-03-22T08:31:24.800Z,1008.61
2016-03-22T08:32:24.818Z,1008.59
2016-03-22T08:33:24.806Z,1008.58
2016-03-22T08:34:24.823Z,1008.55
2016-03-22T08:35:24.826Z,1008.57
2016-03-22T08:36:24.828Z,1008.53
2016-03-22T08:37:24.848Z,1008.59
2016-03-22T08:38:24.850Z,1008.61
2016-03-22T08:39:24.853Z,1008.57
2016-03-22T08:40:24.871Z,1008.56
2016-03-22T08:41:24.873Z,1008.57
2016-03-22T08:42:24.876Z,1008.57
2016-03-22T08:43:24.879Z,1008.57
2016-03-22T08:44:24.882Z,1008.58
2016-03-22T08:45:24.900Z,1008.57
2016-03-22T08:46:24.902Z,1008.61
2016-03-22T08:47:24.906Z,1008.62
2016-03-22T08:48:24.908Z,1008.55
2016-03-22T08:49:24.927Z,1008.55
2016-03-22T08:50:24.930Z,1008.54
2016-03-22T08:51:24.932Z,1008.59
2016-03-22T08:52:24.950Z,1008.5
2016-03-22T08:53:24.952Z,1008.52
2016-03-22T08:54:24.956Z,1008.54
2016-03-22T08:55:24.958Z,1008.51
2016-03-22T08:56:24.976Z,1008.54
2016-03-22T08:57:24.980Z,1008.56
2016-03-22T08:58:24.982Z,1008.53
2016-03-22T08:59:24.985Z,1008.54
2016-03-22T09:00:25.004Z,1008.58
2016-03-22T09:01:25.022Z,1008.6
2016-03-22T09:02:25.009Z,1008.6
2016-03-22T09:03:25.026Z,1008.6
2016-03-22T09:04:25.029Z,1008.58
2016-03-22T09:05:25.032Z,1008.63
2016-03-22T09:06:25.035Z,1008.61
2016-03-22T09:07:25.050Z,1008.59
2016-03-22T09:08:25.053Z,1008.62
2016-03-22T09:09:25.072Z,1008.59
2016-03-22T09:10:25.074Z,1008.55
2016-03-22T09:11:25.077Z,1008.56
2016-03-22T09:12:25.095Z,1008.56
2016-03-22T09:13:25.098Z,1008.57
2016-03-22T09:14:25.100Z,1008.57
2016-03-22T09:15:25.103Z,1008.63
2016-03-22T09:16:25.121Z,1008.63
2016-03-22T09:17:25.124Z,1008.67
2016-03-22T09:18:25.126Z,1008.7
2016-03-22T09:19:25.145Z,1008.67
2016-03-22T09:20:25.147Z,1008.58
2016-03-22T09:21:25.149Z,1008.55
2016-03-22T09:22:25.168Z,1008.54
2016-03-22T09:23:25.171Z,1008.52
2016-03-22T09:24:25.174Z,1008.5
2016-03-22T09:25:25.192Z,1008.52
2016-03-22T09:26:25.196Z,1008.49
2016-03-22T09:27:25.198Z,1008.47
2016-03-22T09:28:25.215Z,1008.47
2016-03-22T09:29:25.218Z,1008.46
2016-03-22T09:30:25.221Z,1008.43
2016-03-22T09:31:25.240Z,1008.41
2016-03-22T09:32:25.242Z,1008.43
2016-03-22T09:33:25.245Z,1008.4
2016-03-22T09:34:25.248Z,1008.42
2016-03-22T09:35:25.266Z,1008.47
2016-03-22T09:36:25.270Z,1008.47
2016-03-22T09:37:25.272Z,1008.46
2016-03-22T09:38:25.274Z,1008.47
2016-03-22T09:39:25.292Z,1008.46
2016-03-22T09:40:25.295Z,1008.4
2016-03-22T09:41:25.314Z,1008.41
2016-03-22T09:42:25.316Z,1008.44
2016-03-22T09:43:25.319Z,1008.45
2016-03-22T09:44:25.321Z,1008.45
2016-03-22T09:45:25.340Z,1008.48
2016-03-22T09:46:25.342Z,1008.5
2016-03-22T09:47:25.345Z,1008.45
2016-03-22T09:48:25.347Z,1008.46
2016-03-22T09:49:25.366Z,1008.39
2016-03-22T09:50:25.369Z,1008.42
2016-03-22T09:51:25.371Z,1008.39
2016-03-22T09:52:25.390Z,1008.44
2016-03-22T09:53:25.393Z,1008.41
2016-03-22T09:54:25.395Z,1008.37
2016-03-22T09:55:25.414Z,1008.36
2016-03-22T09:56:25.416Z,1008.39
2016-03-22T09:57:25.419Z,1008.38
2016-03-22T09:58:25.421Z,1008.37
2016-03-22T09:59:25.440Z,1008.41
2016-03-22T10:00:25.443Z,1008.41
2016-03-22T10:01:25.445Z,1008.45
2016-03-22T10:02:25.464Z,1008.42
2016-03-22T10:03:25.467Z,1008.39
2016-03-22T10:04:25.469Z,1008.39
2016-03-22T10:05:25.473Z,1008.41
2016-03-22T10:06:25.475Z,1008.36
2016-03-22T10:07:25.492Z,1008.33
2016-03-22T10:08:25.496Z,1008.31
2016-03-22T10:09:25.498Z,1008.32
2016-03-22T10:10:25.517Z,1008.31
2016-03-22T10:11:25.519Z,1008.36
2016-03-22T10:12:25.522Z,1008.38
2016-03-22T10:13:25.525Z,1008.37
2016-03-22T10:14:25.543Z,1008.38
2016-03-22T10:15:25.545Z,1008.34
2016-03-22T10:16:25.548Z,1008.38
2016-03-22T10:17:25.566Z,1008.33
2016-03-22T10:18:25.585Z,1008.4
2016-03-22T10:19:25.572Z,1008.36
2016-03-22T10:20:25.590Z,1008.36
2016-03-22T10:21:25.593Z,1008.36
2016-03-22T10:22:25.596Z,1008.38
2016-03-22T10:23:25.613Z,1008.38
2016-03-22T10:24:25.616Z,1008.39
2016-03-22T10:25:25.619Z,1008.36
2016-03-22T10:26:25.638Z,1008.37
2016-03-22T10:27:25.640Z,1008.37
2016-03-22T10:28:25.643Z,1008.38
2016-03-22T10:29:25.646Z,1008.42
2016-03-22T10:30:25.648Z,1008.39
2016-03-22T10:31:25.667Z,1008.37
2016-03-22T10:32:25.670Z,1008.42
2016-03-22T10:33:25.672Z,1008.46
2016-03-22T10:34:25.690Z,1008.39
2016-03-22T10:35:25.693Z,1008.41
2016-03-22T10:36:25.696Z,1008.4
2016-03-22T10:37:25.714Z,1008.46
2016-03-22T10:38:25.717Z,1008.36
2016-03-22T10:39:25.720Z,1008.38
2016-03-22T10:40:25.737Z,1008.39
2016-03-22T10:41:25.739Z,1008.39
2016-03-22T10:42:25.742Z,1008.46
2016-03-22T10:43:25.761Z,1008.42
2016-03-22T10:44:25.764Z,1008.39
2016-03-22T10:45:25.767Z,1008.41
2016-03-22T10:46:25.769Z,1008.38
2016-03-22T10:47:25.788Z,1008.39
2016-03-22T10:48:25.791Z,1008.35
2016-03-22T10:49:25.794Z,1008.33
2016-03-22T10:50:25.796Z,1008.35
2016-03-22T10:51:25.813Z,1008.36
2016-03-22T10:52:25.816Z,1008.3
2016-03-22T10:53:25.835Z,1008.36
2016-03-22T10:54:25.838Z,1008.31
2016-03-22T10:55:25.841Z,1008.3
2016-03-22T10:56:25.843Z,1008.31
2016-03-22T10:57:25.862Z,1008.34
2016-03-22T10:58:25.864Z,1008.33
2016-03-22T10:59:25.868Z,1008.39
2016-03-22T11:00:25.870Z,1008.32
2016-03-22T11:01:25.872Z,1008.31
2016-03-22T11:02:25.891Z,1008.28
2016-03-22T11:03:25.891Z,1008.24
2016-03-22T11:04:25.888Z,1008.27
2016-03-22T11:05:25.900Z,1008.29
2016-03-22T11:06:25.896Z,1008.31
2016-03-22T11:07:25.909Z,1008.33
2016-03-22T11:08:25.906Z,1008.31
2016-03-22T11:09:25.906Z,1008.31
2016-03-22T11:10:25.907Z,1008.31
2016-03-22T11:11:25.907Z,1008.35
2016-03-22T11:12:25.924Z,1008.31
2016-03-22T11:13:25.924Z,1008.33
2016-03-22T11:14:25.927Z,1008.32
2016-03-22T11:15:25.929Z,1008.27
2016-03-22T11:16:25.993Z,1008.28
2016-03-22T11:17:25.948Z,1008.27
2016-03-22T11:18:25.951Z,1008.25
2016-03-22T11:19:25.952Z,1008.23
2016-03-22T11:20:25.969Z,1008.21
2016-03-22T11:21:25.972Z,1008.14
2016-03-22T11:22:25.974Z,1008.18
2016-03-22T11:23:25.993Z,1008.16
2016-03-22T11:24:26.012Z,1008.07
2016-03-22T11:25:25.998Z,1008.1
2016-03-22T11:26:26.017Z,1008.11
2016-03-22T11:27:26.020Z,1008.03
2016-03-22T11:28:26.022Z,1008.02
2016-03-22T11:29:26.025Z,1008.04
2016-03-22T11:30:26.042Z,1008.02
2016-03-22T11:31:26.046Z,1008.06
2016-03-22T11:32:26.048Z,1008.05
2016-03-22T11:33:26.067Z,1008
2016-03-22T11:34:26.069Z,1008.03
2016-03-22T11:35:26.072Z,1008.04
2016-03-22T11:36:26.075Z,1008.05
2016-03-22T11:37:26.093Z,1008.04
2016-03-22T11:38:26.095Z,1008.07
2016-03-22T11:39:26.097Z,1008.05
2016-03-22T11:40:26.117Z,1008
2016-03-22T11:41:26.119Z,1008.02
2016-03-22T11:42:26.122Z,1008.04
2016-03-22T11:43:26.141Z,1008.07
2016-03-22T11:44:26.143Z,1008.05
2016-03-22T11:45:26.146Z,1008.01
2016-03-22T11:46:26.149Z,1007.98
2016-03-22T11:47:26.151Z,1007.98
2016-03-22T11:48:26.169Z,1007.95
2016-03-22T11:49:26.171Z,1007.97
2016-03-22T11:50:26.175Z,1007.94
2016-03-22T11:51:26.193Z,1007.94
2016-03-22T11:52:26.196Z,1007.91
2016-03-22T11:53:26.198Z,1007.93
2016-03-22T11:54:26.201Z,1007.93
2016-03-22T11:55:26.220Z,1007.89
2016-03-22T11:56:26.223Z,1007.89
2016-03-22T11:57:26.225Z,1007.9
2016-03-22T11:58:26.243Z,1007.89
2016-03-22T11:59:26.246Z,1007.92
2016-03-22T12:00:26.248Z,1007.86
2016-03-22T12:01:26.251Z,1007.83
2016-03-22T12:02:26.270Z,1007.83
2016-03-22T12:03:26.272Z,1007.86
2016-03-22T12:04:26.275Z,1007.79
2016-03-22T12:05:26.278Z,1007.83
2016-03-22T12:06:26.295Z,1007.84
2016-03-22T12:07:26.298Z,1007.84
2016-03-22T12:08:26.300Z,1007.82